Aline, OK

9:28 PM CDT on May 28, 2015 (GMT -0500)
Amateur Radio W5PDB | | Change Station
CLOSE
Current Station
Personal Weather Station
Location: Jet, OK
Elevation: 1280 ft
Nearby Weather Stations
Active Advisory: Flash Flood Watch

Elev 1280 ft 36.67 °N, 98.18 °W | Updated 3 minutes ago

Clear
Clear
73.2 °F
Feels Like 77 °F
N
6.0
Wind Variable Wind from SSE
Gusts 6.0 mph

Today
High -- | Low -- °F
--% Chance of Precip.
Yesterday
High -- | Low -- °F
Precip. -- in
6:18 AM 8:43 PM
Waxing Gibbous, 80% visible
Pressure 29.90 in
Visibility 10.0 miles
Clouds Clear
Heat Index 77 °F
Dew Point 48 °F
Humidity 40%
Rainfall 0.75 in
Snow Depth Not available.
UV 0 out of 12
Pollen 6.60 out of 12
Air Quality Not available.
Flu Activity Sporadic
METAR KEND 290158Z AUTO 13007KT 10SM CLR 23/18 A2992 RMK AO2 DZB0058 SLP124 P0000 T02280183 $

More Conditions Fewer Conditions

Pressure 29.90 in
Visibility 10.0 miles
Clouds Clear
Heat Index 77 °F
Dew Point 48 °F
Humidity 40%
Rainfall 0.75 in
Snow Depth Not available.
UV 0 out of 12
Pollen 6.60 out of 12
Air Quality Not available.
Flu Activity Sporadic
METAR KEND 290158Z AUTO 13007KT 10SM CLR 23/18 A2992 RMK AO2 DZB0058 SLP124 P0000 T02280183 $

More Conditions Fewer Conditions

10-Day Weather Forecast

Almanac

Astronomy

May. 28, 2015 Rise Set
Actual Time
Civil Twilight
Nautical Twilight
Astronomical Twilight
Moon
Length of Visible Light
Length of Day
Tomorrow will be .
, % of the Moon is Illuminated

Today's Extremes

State Highs State Lows

Community

WunderPhotos

Upload Photos

1,825,137 photos uploaded!

WunderBlogs® & News

Nearby

Air Quality

  Air Quality AQ Index Pollutant
Not available.

Snow Depth

Station Depth Elevation

Earthquake Activity

City Distance Mag. Time & Date
Minimum magnitude displayed is 2.5.

Coastal Water Temperatures

Place Temperature

Stations

Nearby Weather Stations

Station Location Temp. Windchill Dew Point Humidity Wind Precip. Elev Updated Type
                   
Flash Flood Watch
Statement as of 3:01 PM CDT on May 28, 2015

... Flash Flood Watch remains in effect through Sunday morning...

The Flash Flood Watch continues for

* all of northern... western... .central... and southern Oklahoma and
western North Texas.

* Through Sunday morning

* Thursday afternoon and night... best chance for heavy rainfall
southwest Oklahoma and western North Texas. Locally 1 to 2
inches of rain possible with higher amounts.

* Friday through Saturday night... best chance for heavy rainfall
will reside from northern through central... and southern
Oklahoma... and western North Texas. Locally 1 to 2 inches of
rain possible with higher amounts.

* Widespread 1 to 3 inch rainfall totals are expected through
Saturday night... with locally higher amounts exceeding 5 inches
possible.

Precautionary/preparedness actions...

Monitor weather forecasts and information. Make plans to get to
higher ground if flooding happens.



Austin